Livingston, Illinois
Current Conditions -  °F | °C
As of 4:15 AM on Tuesday 27 Jan 2015 (Local Time) from K3LF Reporting Station
Clear Clear  
Wind Chill: 24°   Ceiling: Unl
Heat Index: 31°   Visibility: 7mi
Dew Point: 29°   Wind: 8mph
Humidity: 92%   Direction: 330°NNW
Pressure: 29.96"   Gusts: NA
Location:  38.97°N, 89.76°W
Report Text: K3LF 271015Z AUTO 33007KT 7SM CLR 00/M01 A2996 RMK AO2 T10031015
Loading
Personal Weather Stations






























Interactive Weather Map New forecast layout! Learn more

10-Day Weather Forecast

Advertisements
Track Severe Weather on mobile